Time;durP1;ratioP1;P1;durP2;ratioP2;P2;SDS_P1;SDS_P2;PMS_P1;PMS_P2;Temp;Humidity;BMP_temperature;BMP_pressure;BME280_temperature;BME280_humidity;BME280_pressure;Samples;Min_cycle;Max_cycle;Signal;HPM_P1;HPM_P2
2023/03/10 00:02:20;;;;;;;27.17;15.00;;;;;;;;;;5077548;28;20017;-88
2023/03/10 00:04:50;;;;;;;22.35;12.95;;;;;;;;;;5076976;28;20063;-88
2023/03/10 00:07:16;;;;;;;22.23;11.32;;;;;;;;;;5077385;28;20155;-88
2023/03/10 00:09:42;;;;;;;15.65;10.10;;;;;;;;;;5059721;28;20024;-88
2023/03/10 00:12:08;;;;;;;24.17;12.50;;;;;;;;;;5077487;28;20036;-87
2023/03/10 00:14:35;;;;;;;21.48;10.77;;;;;;;;;;5059609;28;20115;-88
2023/03/10 00:17:33;;;;;;;16.13;10.07;;;;;;;;;;5058543;28;20045;-88
2023/03/10 00:20:00;;;;;;;23.65;12.88;;;;;;;;;;5043383;28;20029;-89
2023/03/10 00:22:26;;;;;;;21.98;12.25;;;;;;;;;;5044160;28;20119;-88
2023/03/10 00:24:52;;;;;;;20.30;10.52;;;;;;;;;;5042973;28;20029;-86
2023/03/10 00:27:18;;;;;;;18.45;10.82;;;;;;;;;;5060877;28;20025;-86
2023/03/10 00:29:44;;;;;;;22.73;10.98;;;;;;;;;;5043244;28;20120;-86
2023/03/10 00:35:27;;;;;;;15.93;7.80;;;;;;;;;;5060869;28;20039;-86
2023/03/10 00:38:01;;;;;;;12.73;6.95;;;;;;;;;;5060657;28;20037;-86
2023/03/10 00:40:27;;;;;;;10.98;6.45;;;;;;;;;;5060842;28;20035;-86
2023/03/10 00:42:53;;;;;;;9.85;5.05;;;;;;;;;;5060528;28;20025;-87
2023/03/10 00:45:19;;;;;;;11.27;6.50;;;;;;;;;;5060504;28;20024;-86
2023/03/10 00:47:45;;;;;;;12.15;6.60;;;;;;;;;;5042647;28;20308;-86
2023/03/10 00:50:11;;;;;;;10.13;5.95;;;;;;;;;;5042842;28;20116;-88
2023/03/10 00:52:38;;;;;;;13.57;7.25;;;;;;;;;;5042720;28;20037;-88
2023/03/10 00:55:04;;;;;;;11.40;7.05;;;;;;;;;;5042765;28;20419;-88
2023/03/10 00:57:30;;;;;;;13.80;7.82;;;;;;;;;;5060532;28;20112;-88
2023/03/10 00:59:56;;;;;;;15.07;7.50;;;;;;;;;;5060449;28;20029;-88
2023/03/10 01:02:40;;;;;;;8.68;5.80;;;;;;;;;;5060567;28;20025;-88
2023/03/10 01:05:06;;;;;;;10.43;6.43;;;;;;;;;;5060410;28;20106;-89
2023/03/10 01:07:32;;;;;;;12.65;7.15;;;;;;;;;;5042400;28;20017;-88
2023/03/10 01:09:58;;;;;;;12.88;6.75;;;;;;;;;;5042570;28;20029;-88
2023/03/10 01:12:24;;;;;;;17.05;8.90;;;;;;;;;;5060072;28;20296;-89
2023/03/10 01:14:51;;;;;;;14.23;7.18;;;;;;;;;;5060069;28;20032;-86
2023/03/10 01:20:20;;;;;;;12.82;6.70;;;;;;;;;;5078379;28;20040;-88
2023/03/10 01:22:46;;;;;;;13.65;6.65;;;;;;;;;;5062309;28;20037;-88
2023/03/10 01:25:13;;;;;;;15.93;7.63;;;;;;;;;;5061810;28;20033;-88
2023/03/10 01:27:40;;;;;;;17.23;8.60;;;;;;;;;;5061896;28;20071;-89
2023/03/10 01:30:06;;;;;;;23.77;12.45;;;;;;;;;;5078925;28;20036;-87
2023/03/10 01:32:51;;;;;;;40.20;16.85;;;;;;;;;;5079637;28;20024;-88
2023/03/10 01:35:17;;;;;;;38.63;18.02;;;;;;;;;;5061887;28;20028;-89
2023/03/10 01:37:43;;;;;;;26.15;13.60;;;;;;;;;;5079323;28;20028;-88
2023/03/10 01:40:15;;;;;;;28.75;12.57;;;;;;;;;;5079598;28;20083;-88
2023/03/10 01:42:41;;;;;;;22.25;10.63;;;;;;;;;;5079394;28;20028;-88
2023/03/10 01:45:09;;;;;;;21.00;10.63;;;;;;;;;;5061485;28;20125;-87
2023/03/10 01:47:35;;;;;;;18.25;9.00;;;;;;;;;;5079053;28;20021;-89
2023/03/10 01:50:02;;;;;;;14.90;7.65;;;;;;;;;;5079522;28;20024;-89
2023/03/10 01:52:31;;;;;;;10.82;6.32;;;;;;;;;;5079535;28;20028;-89
2023/03/10 01:55:00;;;;;;;11.70;5.57;;;;;;;;;;5079017;28;20028;-89
2023/03/10 01:57:28;;;;;;;6.57;4.80;;;;;;;;;;5061091;28;20481;-88
2023/03/10 01:59:55;;;;;;;9.93;4.97;;;;;;;;;;5079211;28;20107;-89
2023/03/10 02:02:21;;;;;;;8.63;4.80;;;;;;;;;;5079294;28;20032;-88
2023/03/10 02:04:48;;;;;;;8.05;4.78;;;;;;;;;;5079170;28;20078;-88
2023/03/10 02:07:17;;;;;;;9.10;4.82;;;;;;;;;;5078750;28;20028;-87
2023/03/10 02:09:44;;;;;;;9.70;4.78;;;;;;;;;;5079225;28;20082;-88
2023/03/10 02:12:12;;;;;;;7.32;4.28;;;;;;;;;;5079234;28;20024;-88
2023/03/10 02:14:38;;;;;;;7.57;4.57;;;;;;;;;;5079257;28;20028;-88
2023/03/10 02:17:06;;;;;;;14.45;6.10;;;;;;;;;;5078806;28;20024;-88
2023/03/10 02:19:47;;;;;;;20.52;8.50;;;;;;;;;;5078621;28;20036;-88
2023/03/10 02:22:14;;;;;;;11.93;6.82;;;;;;;;;;5061022;28;20040;-89
2023/03/10 02:24:51;;;;;;;9.07;5.95;;;;;;;;;;5078653;28;20040;-89
2023/03/10 02:27:18;;;;;;;11.35;5.78;;;;;;;;;;5078462;28;20399;-89
2023/03/10 02:29:48;;;;;;;9.27;5.68;;;;;;;;;;5078707;28;20044;-88
2023/03/10 02:32:14;;;;;;;9.82;5.20;;;;;;;;;;5078784;28;20016;-88
2023/03/10 02:34:41;;;;;;;10.30;5.70;;;;;;;;;;5060953;28;20024;-87
2023/03/10 02:37:07;;;;;;;11.70;5.88;;;;;;;;;;5078555;28;20383;-88
2023/03/10 02:39:33;;;;;;;9.15;5.50;;;;;;;;;;5060891;28;20394;-87
2023/03/10 02:41:59;;;;;;;8.38;4.93;;;;;;;;;;5060545;28;20035;-88
2023/03/10 02:44:25;;;;;;;8.00;5.03;;;;;;;;;;5078090;28;20048;-87
2023/03/10 02:46:51;;;;;;;7.10;5.32;;;;;;;;;;5077774;28;20032;-88
2023/03/10 02:49:20;;;;;;;9.00;4.63;;;;;;;;;;5091621;28;20477;-88
2023/03/10 02:51:47;;;;;;;13.15;5.57;;;;;;;;;;5098447;28;20034;-87
2023/03/10 02:54:13;;;;;;;7.97;4.70;;;;;;;;;;5076942;28;20158;-89
2023/03/10 02:56:41;;;;;;;10.73;5.47;;;;;;;;;;5077337;28;20056;-88
2023/03/10 02:59:07;;;;;;;9.48;5.82;;;;;;;;;;5078441;28;20040;-87
2023/03/10 03:01:33;;;;;;;8.05;5.38;;;;;;;;;;5077119;28;20024;-88
2023/03/10 03:04:00;;;;;;;10.20;5.40;;;;;;;;;;5077785;28;20028;-86
2023/03/10 03:06:26;;;;;;;8.43;5.45;;;;;;;;;;5078092;28;20051;-87
2023/03/10 03:08:52;;;;;;;17.63;6.15;;;;;;;;;;5078211;28;20405;-87
2023/03/10 03:11:18;;;;;;;9.35;5.75;;;;;;;;;;5060381;28;20032;-88
2023/03/10 03:13:44;;;;;;;11.40;6.03;;;;;;;;;;5077726;28;20050;-89
2023/03/10 03:16:10;;;;;;;11.10;5.65;;;;;;;;;;5078068;28;20020;-88
2023/03/10 03:18:37;;;;;;;8.35;5.38;;;;;;;;;;5076942;28;20028;-88
2023/03/10 03:21:06;;;;;;;11.05;6.10;;;;;;;;;;5089856;28;20414;-88
2023/03/10 03:23:33;;;;;;;12.30;7.72;;;;;;;;;;5080149;28;20028;-88
2023/03/10 03:25:59;;;;;;;12.55;6.65;;;;;;;;;;5080101;28;20039;-89
2023/03/10 03:28:25;;;;;;;11.52;7.05;;;;;;;;;;5080094;28;20047;-88
2023/03/10 03:31:14;;;;;;;11.73;7.45;;;;;;;;;;5080391;28;20032;-88
2023/03/10 03:33:40;;;;;;;10.10;7.10;;;;;;;;;;5080025;28;20016;-88
2023/03/10 03:36:07;;;;;;;15.40;10.18;;;;;;;;;;5079828;28;20035;-88
2023/03/10 03:38:33;;;;;;;13.90;11.00;;;;;;;;;;5098120;28;20031;-88
2023/03/10 03:40:59;;;;;;;17.52;12.98;;;;;;;;;;5097614;28;20032;-88
2023/03/10 03:43:28;;;;;;;16.92;12.80;;;;;;;;;;5098029;28;20016;-89
2023/03/10 03:45:54;;;;;;;15.00;10.43;;;;;;;;;;5097550;28;20299;-88
2023/03/10 03:48:20;;;;;;;15.68;10.55;;;;;;;;;;5097886;28;20107;-88
2023/03/10 03:50:49;;;;;;;18.15;12.82;;;;;;;;;;5097865;28;20036;-87
2023/03/10 03:53:15;;;;;;;15.38;10.07;;;;;;;;;;5100628;28;20031;-87
2023/03/10 03:55:41;;;;;;;14.15;9.05;;;;;;;;;;5083862;28;20032;-88
2023/03/10 03:58:07;;;;;;;10.77;8.38;;;;;;;;;;5101544;28;20032;-88
2023/03/10 04:00:34;;;;;;;18.92;12.00;;;;;;;;;;5102012;28;20107;-87
2023/03/10 04:03:00;;;;;;;20.83;14.98;;;;;;;;;;5101403;28;20032;-88
2023/03/10 04:05:27;;;;;;;23.45;15.82;;;;;;;;;;5101835;28;20418;-88
2023/03/10 04:07:53;;;;;;;20.80;12.73;;;;;;;;;;5083621;28;20035;-88
2023/03/10 04:10:20;;;;;;;22.42;16.15;;;;;;;;;;5083547;28;20043;-88
2023/03/10 04:12:46;;;;;;;21.63;14.68;;;;;;;;;;5083752;28;20033;-87
2023/03/10 04:15:13;;;;;;;21.75;14.98;;;;;;;;;;5083421;28;20421;-87
2023/03/10 04:20:42;;;;;;;12.27;10.07;;;;;;;;;;5101266;28;20039;-87
2023/03/10 04:23:08;;;;;;;17.20;11.55;;;;;;;;;;5101422;28;20034;-87
2023/03/10 04:25:35;;;;;;;16.45;11.15;;;;;;;;;;5101408;28;20024;-88
2023/03/10 04:28:01;;;;;;;22.75;14.18;;;;;;;;;;5100808;28;20032;-88
2023/03/10 04:30:28;;;;;;;29.02;15.57;;;;;;;;;;5100544;28;20039;-90
2023/03/10 04:32:59;;;;;;;24.63;15.95;;;;;;;;;;5101016;28;20030;-87
2023/03/10 04:35:25;;;;;;;27.38;17.42;;;;;;;;;;5101207;28;20020;-89
2023/03/10 04:37:52;;;;;;;16.50;11.95;;;;;;;;;;5100852;28;20409;-90
2023/03/10 04:40:18;;;;;;;14.55;11.65;;;;;;;;;;5100704;28;20107;-90
2023/03/10 04:42:44;;;;;;;12.07;9.88;;;;;;;;;;5083130;28;20031;-90
2023/03/10 04:45:11;;;;;;;13.63;9.80;;;;;;;;;;5104294;28;20023;-78
2023/03/10 04:47:37;;;;;;;11.07;8.63;;;;;;;;;;5120297;28;20027;-79
2023/03/10 04:50:04;;;;;;;14.30;9.18;;;;;;;;;;5113711;28;20028;-79
2023/03/10 04:52:30;;;;;;;15.30;12.27;;;;;;;;;;5099675;28;20024;-78
2023/03/10 04:54:56;;;;;;;14.90;10.38;;;;;;;;;;5100266;28;20020;-79
2023/03/10 04:57:23;;;;;;;12.27;8.48;;;;;;;;;;5099968;28;20050;-78
2023/03/10 04:59:49;;;;;;;13.93;9.48;;;;;;;;;;5099922;28;20111;-79
2023/03/10 05:02:15;;;;;;;20.80;10.63;;;;;;;;;;5081941;28;20034;-78
2023/03/10 05:04:42;;;;;;;13.30;8.93;;;;;;;;;;5100014;28;20024;-78
2023/03/10 05:07:08;;;;;;;12.27;9.07;;;;;;;;;;5099920;28;20055;-78
2023/03/10 05:09:35;;;;;;;12.60;9.57;;;;;;;;;;5099854;28;20027;-78
2023/03/10 05:12:01;;;;;;;13.13;9.15;;;;;;;;;;5099692;28;20097;-78
2023/03/10 05:14:27;;;;;;;15.13;8.93;;;;;;;;;;5099672;28;20112;-78
2023/03/10 05:16:53;;;;;;;12.55;9.93;;;;;;;;;;5099405;28;20028;-79
2023/03/10 05:19:19;;;;;;;17.52;13.23;;;;;;;;;;5099837;28;20031;-79
2023/03/10 05:21:45;;;;;;;20.40;15.15;;;;;;;;;;5099325;28;20044;-78
2023/03/10 05:24:11;;;;;;;15.60;11.25;;;;;;;;;;5098351;28;20055;-78
2023/03/10 05:26:38;;;;;;;14.45;9.00;;;;;;;;;;5102467;28;20070;-79
2023/03/10 05:29:04;;;;;;;13.07;8.48;;;;;;;;;;5119606;28;20024;-79
2023/03/10 05:31:30;;;;;;;13.70;8.98;;;;;;;;;;5115785;28;20028;-79
2023/03/10 05:33:56;;;;;;;12.27;8.73;;;;;;;;;;5101541;28;20023;-79
2023/03/10 05:36:23;;;;;;;15.07;9.02;;;;;;;;;;5119717;28;20328;-79
2023/03/10 05:38:49;;;;;;;13.98;8.95;;;;;;;;;;5119663;28;20030;-79
2023/03/10 05:41:15;;;;;;;15.55;10.57;;;;;;;;;;5119526;28;20314;-79
2023/03/10 05:43:41;;;;;;;17.05;11.13;;;;;;;;;;5101486;28;20027;-79
2023/03/10 05:46:08;;;;;;;19.75;11.70;;;;;;;;;;5108353;28;20016;-79
2023/03/10 05:48:34;;;;;;;19.13;10.50;;;;;;;;;;5078480;28;20415;-79
2023/03/10 05:51:20;;;;;;;16.42;9.68;;;;;;;;;;5086268;28;20032;-79
2023/03/10 05:53:47;;;;;;;14.27;8.10;;;;;;;;;;5098943;28;20032;-79
2023/03/10 05:56:14;;;;;;;12.82;7.43;;;;;;;;;;5079470;28;20119;-79
2023/03/10 05:58:40;;;;;;;10.15;6.68;;;;;;;;;;5091533;28;20028;-78
2023/03/10 06:01:07;;;;;;;10.73;7.10;;;;;;;;;;5090326;28;20037;-78
2023/03/10 06:03:33;;;;;;;10.60;6.60;;;;;;;;;;5088687;28;20039;-78
2023/03/10 06:05:59;;;;;;;12.43;6.18;;;;;;;;;;5098744;28;20043;-79
2023/03/10 06:08:29;;;;;;;11.40;6.40;;;;;;;;;;5096823;28;20099;-79
2023/03/10 06:10:56;;;;;;;12.27;6.97;;;;;;;;;;5117624;28;20393;-78
2023/03/10 06:13:22;;;;;;;11.77;6.82;;;;;;;;;;5119016;28;20061;-79
2023/03/10 06:15:52;;;;;;;11.32;7.30;;;;;;;;;;5101439;28;20020;-78
2023/03/10 06:18:19;;;;;;;12.70;8.30;;;;;;;;;;5098309;28;20040;-78
2023/03/10 06:20:45;;;;;;;14.18;7.75;;;;;;;;;;5098439;28;20105;-78
2023/03/10 06:23:11;;;;;;;16.10;7.80;;;;;;;;;;5098477;28;20106;-79
2023/03/10 06:25:37;;;;;;;16.17;7.30;;;;;;;;;;5098244;28;20146;-78
2023/03/10 06:28:04;;;;;;;16.55;7.78;;;;;;;;;;5079445;28;20036;-79
2023/03/10 06:30:30;;;;;;;12.80;6.80;;;;;;;;;;5080211;28;20043;-79
2023/03/10 06:32:56;;;;;;;10.32;6.88;;;;;;;;;;5098191;28;20468;-79
2023/03/10 06:35:22;;;;;;;11.25;6.93;;;;;;;;;;5098213;28;20035;-78
2023/03/10 06:37:48;;;;;;;12.82;7.82;;;;;;;;;;5097225;28;20028;-78
2023/03/10 06:40:14;;;;;;;14.82;8.73;;;;;;;;;;5098019;28;20032;-79
2023/03/10 06:42:41;;;;;;;27.15;16.00;;;;;;;;;;5093460;28;20430;-78
2023/03/10 06:45:07;;;;;;;21.95;14.60;;;;;;;;;;5077705;28;20937;-78
2023/03/10 06:47:33;;;;;;;17.60;11.73;;;;;;;;;;5077337;28;20021;-78
2023/03/10 06:50:00;;;;;;;17.73;10.70;;;;;;;;;;5077477;28;20107;-79
2023/03/10 06:52:26;;;;;;;15.75;9.80;;;;;;;;;;5077651;28;20099;-78
2023/03/10 06:54:52;;;;;;;16.33;9.52;;;;;;;;;;5077361;28;20104;-79
2023/03/10 06:57:18;;;;;;;19.48;10.93;;;;;;;;;;5076422;28;20032;-79
2023/03/10 06:59:44;;;;;;;21.20;11.98;;;;;;;;;;5077257;28;20028;-79
2023/03/10 07:02:12;;;;;;;15.65;10.68;;;;;;;;;;5077524;28;20028;-79
2023/03/10 07:04:38;;;;;;;15.43;10.40;;;;;;;;;;5076344;28;20029;-79
2023/03/10 07:07:04;;;;;;;18.88;11.32;;;;;;;;;;5075796;28;20029;-79
2023/03/10 07:09:30;;;;;;;16.20;10.60;;;;;;;;;;5077355;28;20028;-79
2023/03/10 07:11:56;;;;;;;18.45;10.32;;;;;;;;;;5077254;28;20031;-79
2023/03/10 07:14:22;;;;;;;18.83;9.80;;;;;;;;;;5077261;28;20381;-79
2023/03/10 07:16:48;;;;;;;16.48;9.32;;;;;;;;;;5077112;28;20441;-79
2023/03/10 07:19:14;;;;;;;14.95;9.35;;;;;;;;;;5077185;28;20028;-79
2023/03/10 07:21:40;;;;;;;16.58;10.27;;;;;;;;;;5075960;28;20442;-78
2023/03/10 07:24:06;;;;;;;16.60;10.23;;;;;;;;;;5077296;28;20390;-79
2023/03/10 07:26:32;;;;;;;19.10;10.75;;;;;;;;;;5076266;28;20033;-78
2023/03/10 07:29:01;;;;;;;19.50;10.40;;;;;;;;;;5076757;28;20047;-78
2023/03/10 07:31:27;;;;;;;27.73;15.93;;;;;;;;;;5076929;28;20043;-78
2023/03/10 07:33:53;;;;;;;65.70;25.55;;;;;;;;;;5076023;28;20028;-79
2023/03/10 07:36:20;;;;;;;34.78;17.73;;;;;;;;;;5076837;28;20433;-79
2023/03/10 07:38:46;;;;;;;51.70;22.70;;;;;;;;;;5076845;28;20033;-78
2023/03/10 07:41:16;;;;;;;53.78;26.05;;;;;;;;;;5075518;28;20039;-79
2023/03/10 07:43:42;;;;;;;48.67;27.67;;;;;;;;;;5076796;28;20025;-79
2023/03/10 07:46:09;;;;;;;68.32;30.55;;;;;;;;;;5076978;28;20021;-79
2023/03/10 07:48:35;;;;;;;57.92;27.98;;;;;;;;;;5076865;28;20028;-78
2023/03/10 07:51:01;;;;;;;37.83;20.92;;;;;;;;;;5075823;28;20388;-78
2023/03/10 07:53:28;;;;;;;40.72;24.00;;;;;;;;;;5076950;28;20091;-78
2023/03/10 07:55:54;;;;;;;26.80;16.77;;;;;;;;;;5077004;28;20020;-78
2023/03/10 07:58:20;;;;;;;21.27;14.10;;;;;;;;;;5076547;28;20063;-78
2023/03/10 08:00:52;;;;;;;26.70;14.95;;;;;;;;;;5075811;28;20037;-78
2023/03/10 08:03:18;;;;;;;;;;;;;;;;;;5077275;28;20036;-78
2023/03/10 08:05:44;;;;;;;30.48;16.52;;;;;;;;;;5076640;28;20234;-78
2023/03/10 08:08:10;;;;;;;26.70;16.77;;;;;;;;;;5076517;28;20021;-79
2023/03/10 08:10:37;;;;;;;27.95;16.83;;;;;;;;;;5075563;28;20020;-78
2023/03/10 08:13:03;;;;;;;29.15;16.92;;;;;;;;;;5076549;28;20020;-79
2023/03/10 08:15:29;;;;;;;23.40;15.98;;;;;;;;;;5076723;28;20044;-80
2023/03/10 08:17:55;;;;;;;22.83;15.18;;;;;;;;;;5075492;28;20055;-78
2023/03/10 08:20:21;;;;;;;25.38;16.05;;;;;;;;;;5076506;28;20056;-79
2023/03/10 08:22:47;;;;;;;26.38;14.00;;;;;;;;;;5076587;28;20035;-79
2023/03/10 08:25:13;;;;;;;21.83;13.52;;;;;;;;;;5075551;28;20032;-79
2023/03/10 08:27:40;;;;;;;18.92;11.98;;;;;;;;;;5076363;28;20127;-79
2023/03/10 08:30:06;;;;;;;20.52;11.55;;;;;;;;;;5067765;28;20031;-79
2023/03/10 08:32:32;;;;;;;30.10;15.43;;;;;;;;;;5076259;28;20048;-79
2023/03/10 08:34:58;;;;;;;34.10;15.45;;;;;;;;;;5076314;28;20028;-79
2023/03/10 08:37:24;;;;;;;30.88;13.95;;;;;;;;;;5075261;28;20025;-78
2023/03/10 08:39:52;;;;;;;41.15;18.00;;;;;;;;;;5079828;28;20111;-79
2023/03/10 08:42:19;;;;;;;35.95;16.20;;;;;;;;;;5079959;28;20028;-78
2023/03/10 08:44:45;;;;;;;18.13;12.13;;;;;;;;;;5078842;28;20024;-79
2023/03/10 08:47:11;;;;;;;22.42;13.13;;;;;;;;;;5079859;28;20052;-79
2023/03/10 08:49:38;;;;;;;20.58;12.20;;;;;;;;;;5079923;28;20378;-79
2023/03/10 08:52:04;;;;;;;41.03;17.25;;;;;;;;;;5079904;28;20106;-79
2023/03/10 08:54:30;;;;;;;34.25;15.57;;;;;;;;;;5079720;28;20036;-79
2023/03/10 08:56:56;;;;;;;32.13;17.27;;;;;;;;;;5079657;28;20040;-79
2023/03/10 08:59:22;;;;;;;35.92;16.67;;;;;;;;;;5079437;28;20418;-79
2023/03/10 09:01:48;;;;;;;39.28;17.42;;;;;;;;;;5079488;28;20318;-79
2023/03/10 09:04:14;;;;;;;37.42;17.42;;;;;;;;;;5079488;28;20035;-78
2023/03/10 09:06:40;;;;;;;55.80;22.67;;;;;;;;;;5078324;28;20044;-78
2023/03/10 09:09:08;;;;;;;53.67;22.13;;;;;;;;;;5079244;28;20027;-78
2023/03/10 09:11:36;;;;;;;45.22;21.08;;;;;;;;;;5079397;28;20107;-79
2023/03/10 09:14:02;;;;;;;59.78;22.23;;;;;;;;;;5078936;28;20016;-78
2023/03/10 09:16:28;;;;;;;81.32;26.42;;;;;;;;;;5078037;28;20466;-78
2023/03/10 09:18:55;;;;;;;36.22;15.85;;;;;;;;;;5078107;28;20040;-78
2023/03/10 09:21:21;;;;;;;43.95;20.40;;;;;;;;;;5079121;28;20037;-78
2023/03/10 09:23:48;;;;;;;46.33;17.98;;;;;;;;;;5077199;28;20029;-78
2023/03/10 09:26:14;;;;;;;43.70;16.83;;;;;;;;;;5078954;28;20020;-78
2023/03/10 09:28:40;;;;;;;37.50;17.45;;;;;;;;;;5078854;28;20040;-78
2023/03/10 09:31:07;;;;;;;38.50;16.60;;;;;;;;;;5078775;28;20037;-78
2023/03/10 09:33:33;;;;;;;44.67;18.90;;;;;;;;;;5077760;28;20024;-78
2023/03/10 09:36:01;;;;;;;39.22;18.80;;;;;;;;;;5078687;28;20025;-79
2023/03/10 09:38:28;;;;;;;42.72;16.63;;;;;;;;;;5078681;28;20028;-79
2023/03/10 09:40:57;;;;;;;32.95;17.02;;;;;;;;;;5078654;28;20409;-78
2023/03/10 09:43:23;;;;;;;35.13;17.30;;;;;;;;;;5078580;28;20533;-78
2023/03/10 09:46:04;;;;;;;40.35;18.30;;;;;;;;;;5097878;28;20024;-78
2023/03/10 09:48:36;;;;;;;43.50;19.63;;;;;;;;;;5080202;28;20125;-79
2023/03/10 09:51:05;;;;;;;39.45;18.88;;;;;;;;;;5079524;28;20055;-78
2023/03/10 09:53:57;;;;;;;33.45;15.40;;;;;;;;;;5099109;28;20086;-78
2023/03/10 09:56:43;;;;;;;33.58;17.17;;;;;;;;;;5080366;28;20040;-78
2023/03/10 09:59:15;;;;;;;32.42;16.20;;;;;;;;;;5078949;28;20036;-78
2023/03/10 10:01:44;;;;;;;39.38;15.50;;;;;;;;;;5080646;28;20024;-77
2023/03/10 10:04:12;;;;;;;32.92;16.80;;;;;;;;;;5080659;28;20043;-78
2023/03/10 10:06:41;;;;;;;36.50;16.17;;;;;;;;;;5079742;28;20420;-78
2023/03/10 10:09:26;;;;;;;34.80;15.70;;;;;;;;;;5098540;28;20025;-78
2023/03/10 10:11:53;;;;;;;29.05;14.63;;;;;;;;;;5080321;28;20421;-78
2023/03/10 10:14:27;;;;;;;34.65;16.02;;;;;;;;;;5098653;28;20028;-78
2023/03/10 10:17:16;;;;;;;28.60;14.25;;;;;;;;;;5098442;28;20024;-78
2023/03/10 10:19:44;;;;;;;32.63;14.60;;;;;;;;;;4996900;28;20082;-78
2023/03/10 10:22:38;;;;;;;29.05;14.30;;;;;;;;;;4996321;28;20089;-78
2023/03/10 10:25:12;;;;;;;27.45;13.93;;;;;;;;;;4938800;29;20123;-78
2023/03/10 10:27:40;;;;;;;32.38;15.77;;;;;;;;;;4938655;29;20044;-79
2023/03/10 10:30:25;;;;;;;25.15;14.65;;;;;;;;;;4938926;29;20043;-78
2023/03/10 10:32:56;;;;;;;25.92;13.32;;;;;;;;;;4939019;29;20115;-78
2023/03/10 10:35:24;;;;;;;26.55;11.52;;;;;;;;;;4938845;29;20035;-78
2023/03/10 10:38:10;;;;;;;25.27;13.02;;;;;;;;;;4938401;29;20035;-78
2023/03/10 10:40:55;;;;;;;31.38;14.85;;;;;;;;;;4938774;29;20063;-78
2023/03/10 10:43:21;;;;;;;26.10;13.07;;;;;;;;;;4938532;29;20384;-78
2023/03/10 10:46:03;;;;;;;28.48;14.07;;;;;;;;;;4938678;29;20044;-78
2023/03/10 10:48:44;;;;;;;35.05;18.27;;;;;;;;;;4938375;29;20050;-79
2023/03/10 10:51:40;;;;;;;39.58;21.67;;;;;;;;;;4938274;29;20032;-78
2023/03/10 10:54:22;;;;;;;29.30;15.55;;;;;;;;;;4919379;29;20051;-78
2023/03/10 10:56:58;;;;;;;36.97;17.35;;;;;;;;;;4928213;29;20100;-79
2023/03/10 10:59:28;;;;;;;27.42;13.95;;;;;;;;;;4938331;29;20048;-78
2023/03/10 11:01:57;;;;;;;28.75;13.98;;;;;;;;;;4959079;28;20058;-77
2023/03/10 11:04:24;;;;;;;30.85;15.23;;;;;;;;;;4960074;28;20034;-79
2023/03/10 11:06:50;;;;;;;24.02;14.73;;;;;;;;;;4976798;28;20038;-79
2023/03/10 11:09:18;;;;;;;23.92;14.05;;;;;;;;;;4976789;28;20030;-79
2023/03/10 11:11:50;;;;;;;23.90;13.10;;;;;;;;;;4976707;28;20034;-79
2023/03/10 11:14:16;;;;;;;21.33;14.02;;;;;;;;;;4976654;28;20027;-79
2023/03/10 11:16:48;;;;;;;21.35;12.52;;;;;;;;;;4964180;28;20117;-79
2023/03/10 11:19:15;;;;;;;23.75;12.18;;;;;;;;;;5015865;28;20080;-79
2023/03/10 11:21:43;;;;;;;23.08;11.77;;;;;;;;;;5014786;28;20038;-79
2023/03/10 11:24:28;;;;;;;26.88;13.38;;;;;;;;;;5015630;28;20420;-79
2023/03/10 11:26:59;;;;;;;29.10;12.73;;;;;;;;;;5015321;28;20038;-80
2023/03/10 11:29:50;;;;;;;23.75;13.68;;;;;;;;;;5021255;28;20029;-79
2023/03/10 11:32:26;;;;;;;15.85;9.48;;;;;;;;;;5079407;28;20028;-79
2023/03/10 11:34:52;;;;;;;22.20;11.27;;;;;;;;;;5078832;28;20024;-78
2023/03/10 11:37:23;;;;;;;25.45;11.23;;;;;;;;;;5097360;28;20031;-78
2023/03/10 11:40:14;;;;;;;22.52;10.93;;;;;;;;;;5078984;28;20029;-79
2023/03/10 11:42:47;;;;;;;18.80;8.90;;;;;;;;;;5079384;28;20028;-79
2023/03/10 11:45:26;;;;;;;25.58;10.90;;;;;;;;;;5097173;28;20024;-78
2023/03/10 11:48:07;;;;;;;22.55;8.27;;;;;;;;;;5096815;28;20406;-79
2023/03/10 11:50:33;;;;;;;19.92;7.85;;;;;;;;;;5079001;28;20029;-78
2023/03/10 11:53:01;;;;;;;17.05;7.35;;;;;;;;;;5097186;28;20020;-78
2023/03/10 11:55:29;;;;;;;13.40;8.95;;;;;;;;;;5096923;28;20032;-78
2023/03/10 11:57:57;;;;;;;19.05;12.40;;;;;;;;;;5078438;28;20032;-79
2023/03/10 12:00:29;;;;;;;35.33;24.42;;;;;;;;;;5097165;28;20111;-79
2023/03/10 12:03:02;;;;;;;96.63;53.97;;;;;;;;;;5096939;28;20028;-78
2023/03/10 12:05:39;;;;;;;31.63;16.38;;;;;;;;;;5096804;28;20111;-78
2023/03/10 12:08:05;;;;;;;27.08;13.77;;;;;;;;;;5088527;28;20024;-78
2023/03/10 12:10:34;;;;;;;27.92;14.45;;;;;;;;;;5078549;28;20028;-78
2023/03/10 12:13:00;;;;;;;29.02;19.48;;;;;;;;;;5097477;28;20024;-78
2023/03/10 12:15:37;;;;;;;74.18;50.30;;;;;;;;;;5101026;28;20090;-79
2023/03/10 12:18:04;;;;;;;25.00;15.23;;;;;;;;;;5100894;28;20051;-78
2023/03/10 12:20:32;;;;;;;24.70;12.00;;;;;;;;;;5100553;28;20050;-79
2023/03/10 12:22:58;;;;;;;27.10;17.30;;;;;;;;;;5100703;28;20028;-78
2023/03/10 12:25:31;;;;;;;33.78;18.80;;;;;;;;;;5100669;28;20035;-78
2023/03/10 12:28:16;;;;;;;21.90;14.30;;;;;;;;;;5082377;28;20036;-79
2023/03/10 12:30:47;;;;;;;18.50;11.73;;;;;;;;;;5100666;28;20418;-79
2023/03/10 12:33:32;;;;;;;16.40;12.45;;;;;;;;;;5100407;28;20035;-78
2023/03/10 12:36:02;;;;;;;17.50;15.43;;;;;;;;;;5082365;28;20369;-78
2023/03/10 12:38:52;;;;;;;11.95;9.68;;;;;;;;;;5100333;28;20028;-79
2023/03/10 12:41:27;;;;;;;13.02;10.85;;;;;;;;;;5018403;28;20112;-79
2023/03/10 12:43:56;;;;;;;16.90;8.90;;;;;;;;;;5018321;28;20105;-78
2023/03/10 12:46:41;;;;;;;17.95;9.40;;;;;;;;;;5018434;28;20037;-79
2023/03/10 12:49:10;;;;;;;15.35;9.77;;;;;;;;;;5018250;28;20052;-79
2023/03/10 12:51:39;;;;;;;15.77;10.10;;;;;;;;;;5017685;28;20403;-79
2023/03/10 12:54:17;;;;;;;20.05;14.45;;;;;;;;;;5010102;28;20037;-78
2023/03/10 12:56:48;;;;;;;15.85;8.93;;;;;;;;;;5018071;28;20033;-79
2023/03/10 12:59:21;;;;;;;14.52;7.15;;;;;;;;;;5017970;28;20490;-77
2023/03/10 13:01:49;;;;;;;10.63;7.10;;;;;;;;;;5017979;28;20100;-78
2023/03/10 13:04:20;;;;;;;14.40;7.63;;;;;;;;;;5034828;28;20108;-78
2023/03/10 13:06:46;;;;;;;10.77;8.38;;;;;;;;;;5037681;28;20041;-79
2023/03/10 13:09:15;;;;;;;15.32;12.00;;;;;;;;;;5020619;28;20057;-78
2023/03/10 13:11:42;;;;;;;20.67;10.13;;;;;;;;;;5037359;28;20033;-78
2023/03/10 13:14:21;;;;;;;27.45;15.82;;;;;;;;;;5036813;28;20405;-78
2023/03/10 13:17:01;;;;;;;22.13;8.60;;;;;;;;;;5037704;28;20034;-78
2023/03/10 13:19:34;;;;;;;30.73;11.95;;;;;;;;;;5094348;28;20051;-78
2023/03/10 13:22:01;;;;;;;34.88;19.35;;;;;;;;;;5099259;28;20139;-77
2023/03/10 13:24:28;;;;;;;22.60;11.15;;;;;;;;;;5098518;28;20433;-78
2023/03/10 13:27:14;;;;;;;27.35;11.95;;;;;;;;;;5081184;28;20105;-78
2023/03/10 13:29:52;;;;;;;23.50;14.82;;;;;;;;;;5099295;28;20424;-78
2023/03/10 13:32:19;;;;;;;24.75;15.07;;;;;;;;;;5081302;28;20441;-78
2023/03/10 13:34:45;;;;;;;33.35;21.77;;;;;;;;;;5099288;28;20024;-78
2023/03/10 13:37:11;;;;;;;17.35;10.55;;;;;;;;;;5099257;28;20024;-78
2023/03/10 13:39:37;;;;;;;18.95;13.02;;;;;;;;;;5081394;28;20024;-78
2023/03/10 13:42:05;;;;;;;15.52;8.88;;;;;;;;;;5081309;28;20120;-78
2023/03/10 13:44:37;;;;;;;18.42;10.93;;;;;;;;;;5099138;28;20070;-78
2023/03/10 13:47:04;;;;;;;21.13;8.70;;;;;;;;;;5098784;28;20021;-78
2023/03/10 13:49:32;;;;;;;29.10;17.15;;;;;;;;;;5098985;28;20057;-78
2023/03/10 13:51:59;;;;;;;19.50;11.20;;;;;;;;;;5098725;28;20026;-78
2023/03/10 13:54:36;;;;;;;12.55;7.10;;;;;;;;;;5098797;28;20020;-78
2023/03/10 13:57:20;;;;;;;11.68;7.90;;;;;;;;;;5080790;28;20313;-78
2023/03/10 13:59:47;;;;;;;11.48;6.00;;;;;;;;;;5098656;28;20036;-77
2023/03/10 14:02:16;;;;;;;6.13;3.58;;;;;;;;;;5096634;28;20032;-78
2023/03/10 14:04:50;;;;;;;13.50;8.38;;;;;;;;;;5081021;28;20040;-78
2023/03/10 14:07:19;;;;;;;8.95;5.35;;;;;;;;;;5093327;28;20528;-77
2023/03/10 14:10:07;;;;;;;11.88;6.32;;;;;;;;;;5079934;28;20020;-78
2023/03/10 14:12:46;;;;;;;12.98;8.43;;;;;;;;;;5004034;28;20045;-78
2023/03/10 14:15:20;;;;;;;9.80;6.88;;;;;;;;;;5016799;28;20117;-78
2023/03/10 14:17:48;;;;;;;9.40;4.90;;;;;;;;;;5016599;28;20042;-79
2023/03/10 14:20:33;;;;;;;6.25;4.22;;;;;;;;;;5016214;28;20044;-78
2023/03/10 14:22:59;;;;;;;6.20;5.05;;;;;;;;;;5016394;28;20029;-78
2023/03/10 14:25:26;;;;;;;15.00;7.50;;;;;;;;;;5016544;28;20030;-78
2023/03/10 14:27:52;;;;;;;13.90;7.57;;;;;;;;;;5016237;28;20064;-78
2023/03/10 14:30:23;;;;;;;12.82;6.05;;;;;;;;;;5016456;28;20065;-78
2023/03/10 14:32:49;;;;;;;16.13;7.63;;;;;;;;;;5016405;28;20076;-78
2023/03/10 14:35:16;;;;;;;8.02;3.85;;;;;;;;;;5016383;28;20030;-78
2023/03/10 14:37:42;;;;;;;7.65;2.78;;;;;;;;;;5015681;28;20325;-78
2023/03/10 14:40:09;;;;;;;7.00;3.13;;;;;;;;;;5016133;28;20030;-78
2023/03/10 14:42:38;;;;;;;9.15;4.65;;;;;;;;;;5015530;28;20459;-78
2023/03/10 14:45:08;;;;;;;7.15;3.35;;;;;;;;;;5016174;28;20416;-78